Time;durP1;ratioP1;P1;durP2;ratioP2;P2;SDS_P1;SDS_P2;PMS_P1;PMS_P2;Temp;Humidity;BMP_temperature;BMP_pressure;BME280_temperature;BME280_humidity;BME280_pressure;Samples;Min_cycle;Max_cycle;Signal;HPM_P1;HPM_P2
2022/12/22 03:27:44;;;;;;;;;;;;;;;2.13;100.00;99939.16;4940038;29;19919;-77
2022/12/22 03:30:09;;;;;;;;;;;;;;;2.17;100.00;99951.09;4939574;29;19919;-76
2022/12/22 03:32:35;;;;;;;;;;;;;;;2.17;100.00;99951.94;4942637;28;19918;-76
2022/12/22 03:35:00;;;;;;;;;;;;;;;2.18;100.00;99939.78;4942395;28;19958;-77
2022/12/22 03:37:26;;;;;;;;;;;;;;;2.19;100.00;99928.41;4940409;28;19925;-76
2022/12/22 03:39:51;;;;;;;;;;;;;;;2.19;100.00;99939.66;4941610;28;19927;-75
2022/12/22 03:47:44;;;;;;;;;;;;;;;2.08;100.00;99922.94;4940644;28;19918;-76
2022/12/22 03:50:10;;;;;;;;;;;;;;;2.11;100.00;99925.38;4946226;28;20415;-75
2022/12/22 03:52:35;;;;;;;;;;;;;;;2.04;100.00;99932.66;4943698;28;20442;-76
2022/12/22 03:55:00;;;;;;;;;;;;;;;1.85;100.00;99935.38;4947887;28;20009;-75
2022/12/22 03:57:26;;;;;;;;;;;;;;;1.87;100.00;99928.34;4944216;28;19958;-77
2022/12/22 03:59:51;;;;;;;;;;;;;;;1.91;100.00;99922.06;4945973;28;19926;-76
2022/12/22 04:02:17;;;;;;;;;;;;;;;1.93;100.00;99925.44;4946588;28;19925;-76
2022/12/22 04:04:42;;;;;;;;;;;;;;;1.79;100.00;99935.69;4943025;28;19973;-74
2022/12/22 04:07:08;;;;;;;;;;;;;;;1.78;100.00;99934.00;4944120;29;19919;-76
2022/12/22 04:09:33;;;;;;;;;;;;;;;1.85;100.00;99924.97;4946102;28;19918;-76
2022/12/22 04:14:42;;;;;;;;;;;;;;;1.87;100.00;99928.34;4945893;28;19914;-75
2022/12/22 04:17:08;;;;;;;;;;;;;;;1.87;100.00;99923.13;4946697;28;20059;-76
2022/12/22 04:19:34;;;;;;;;;;;;;;;1.84;100.00;99917.22;4943811;28;20286;-76
2022/12/22 04:21:59;;;;;;;;;;;;;;;1.87;100.00;99917.94;4944315;28;19983;-76
2022/12/22 04:24:25;;;;;;;;;;;;;;;1.93;100.00;99925.44;4944764;28;20008;-75
2022/12/22 04:26:51;;;;;;;;;;;;;;;1.98;100.00;99926.03;4941193;28;20397;-75
2022/12/22 04:29:16;;;;;;;;;;;;;;;2.04;100.00;99933.50;4945682;28;19926;-76
2022/12/22 04:31:42;;;;;;;;;;;;;;;1.92;100.00;99947.16;4941637;28;19923;-74
2022/12/22 04:34:07;;;;;;;;;;;;;;;1.95;100.00;99935.75;4946097;28;19919;-76
2022/12/22 04:36:33;;;;;;;;;;;;;;;2.00;100.00;99929.38;4946359;28;19949;-76
2022/12/22 04:38:58;;;;;;;;;;;;;;;2.02;100.00;99927.53;4944057;28;19918;-75
2022/12/22 04:41:24;;;;;;;;;;;;;;;2.06;100.00;99929.06;4944478;28;19925;-76
2022/12/22 04:43:49;;;;;;;;;;;;;;;2.10;100.00;99934.13;4941832;28;19953;-76
2022/12/22 04:46:14;;;;;;;;;;;;;;;2.14;100.00;99920.00;4943538;28;19962;-76
2022/12/22 04:48:40;;;;;;;;;;;;;;;2.17;100.00;99925.06;4946834;28;19919;-77
2022/12/22 04:51:05;;;;;;;;;;;;;;;2.19;100.00;99918.00;4942380;28;19926;-76
2022/12/22 04:53:31;;;;;;;;;;;;;;;2.08;100.00;99922.94;4946501;28;19956;-76
2022/12/22 04:55:58;;;;;;;;;;;;;;;2.00;100.00;99944.97;4956086;28;19977;-76
2022/12/22 04:58:24;;;;;;;;;;;;;;;1.94;100.00;99950.53;4951996;28;20303;-77
2022/12/22 05:00:49;;;;;;;;;;;;;;;1.91;100.00;99934.22;4952420;28;19930;-77
2022/12/22 05:03:15;;;;;;;;;;;;;;;1.81;100.00;99935.63;4936540;28;19982;-76
2022/12/22 05:05:40;;;;;;;;;;;;;;;1.76;100.00;99927.22;4949910;28;19973;-77
2022/12/22 05:08:06;;;;;;;;;;;;;;;1.82;100.00;99921.69;4958348;28;19918;-77
2022/12/22 05:10:31;;;;;;;;;;;;;;;1.81;100.00;99923.47;4954106;28;19923;-77
2022/12/22 05:12:57;;;;;;;;;;;;;;;1.78;100.00;99917.56;4948892;28;19972;-74
2022/12/22 05:15:24;;;;;;;;;;;;;;;1.85;100.00;99911.97;4952687;28;19926;-76
2022/12/22 05:17:49;;;;;;;;;;;;;;;1.91;100.00;99903.00;4953922;28;19985;-76
2022/12/22 05:20:15;;;;;;;;;;;;;;;1.99;100.00;99906.88;4951634;29;19973;-77
2022/12/22 05:22:40;;;;;;;;;;;;;;;2.03;100.00;99905.81;4954498;28;19965;-76
2022/12/22 05:25:06;;;;;;;;;;;;;;;2.05;100.00;99908.31;4949050;28;19926;-76
2022/12/22 05:27:31;;;;;;;;;;;;;;;2.08;100.00;99915.13;4959777;28;19998;-76
2022/12/22 05:29:57;;;;;;;;;;;;;;;2.10;100.00;99931.50;4950262;28;19919;-74
2022/12/22 05:32:22;;;;;;;;;;;;;;;2.11;100.00;99925.38;4948141;28;19919;-75
2022/12/22 05:34:48;;;;;;;;;;;;;;;2.10;100.00;99928.91;4947767;28;19988;-77
2022/12/22 05:37:13;;;;;;;;;;;;;;;2.03;100.00;99934.44;4950966;28;19919;-75
2022/12/22 05:39:38;;;;;;;;;;;;;;;1.97;100.00;99924.34;4942366;29;20009;-77
2022/12/22 05:42:04;;;;;;;;;;;;;;;1.96;100.00;99912.25;4944179;28;19957;-76
2022/12/22 05:44:29;;;;;;;;;;;;;;;1.92;100.00;99892.50;4945223;28;19973;-76
2022/12/22 05:46:55;;;;;;;;;;;;;;;1.92;100.00;99874.28;4944289;28;19990;-75
2022/12/22 05:49:20;;;;;;;;;;;;;;;1.97;100.00;99861.88;4943804;28;19919;-75
2022/12/22 05:51:46;;;;;;;;;;;;;;;1.96;100.00;99881.00;4941738;28;19919;-74
2022/12/22 05:54:12;;;;;;;;;;;;;;;2.01;100.00;99889.41;4943010;28;19965;-74
2022/12/22 05:56:37;;;;;;;;;;;;;;;1.97;100.00;99908.72;4943779;28;19966;-74
2022/12/22 05:59:03;;;;;;;;;;;;;;;2.02;100.00;99914.53;4944072;28;19926;-74
2022/12/22 06:01:28;;;;;;;;;;;;;;;2.03;100.00;99920.56;4946970;28;19918;-75
2022/12/22 06:03:53;;;;;;;;;;;;;;;2.03;100.00;99917.97;4944419;28;19923;-76
2022/12/22 06:06:19;;;;;;;;;;;;;;;2.01;100.00;99920.66;4945914;28;19922;-78
2022/12/22 06:08:45;;;;;;;;;;;;;;;1.99;100.00;99900.84;4946539;28;20371;-77
2022/12/22 06:11:10;;;;;;;;;;;;;;;1.98;100.00;99907.81;4944116;28;19918;-78
2022/12/22 06:13:36;;;;;;;;;;;;;;;1.99;100.00;99906.88;4938506;28;19918;-78
2022/12/22 06:16:01;;;;;;;;;;;;;;;1.99;100.00;99906.88;4945486;28;20012;-78
2022/12/22 06:18:27;;;;;;;;;;;;;;;1.99;100.00;99911.25;4944734;28;19965;-80
2022/12/22 06:20:53;;;;;;;;;;;;;;;1.98;100.00;99909.56;4944835;28;19927;-74
2022/12/22 06:23:18;;;;;;;;;;;;;;;2.03;100.00;99903.19;4944881;28;19918;-76
2022/12/22 06:25:52;;;;;;;;;;;;;;;1.98;100.00;99907.81;4941886;28;19922;-75
2022/12/22 06:28:18;;;;;;;;;;;;;;;1.94;100.00;99919.31;4942948;28;20410;-78
2022/12/22 06:30:43;;;;;;;;;;;;;;;1.90;100.00;99943.78;4946313;28;19926;-82
2022/12/22 06:33:09;;;;;;;;;;;;;;;1.91;100.00;99940.28;4943921;28;20121;-84
2022/12/22 06:35:35;;;;;;;;;;;;;;;1.83;100.00;99942.41;4941415;28;19918;-84
2022/12/22 06:38:00;;;;;;;;;;;;;;;1.78;100.00;99948.78;4938221;28;19922;-83
2022/12/22 06:40:26;;;;;;;;;;;;;;;1.75;100.00;99954.16;4943829;28;20390;-78
2022/12/22 06:43:09;;;;;;;;;;;;;;;1.65;100.00;99949.38;4941874;28;19962;-78
2022/12/22 06:45:39;;;;;;;;;;;;;;;1.60;100.00;99955.75;4941146;29;19914;-77
2022/12/22 06:48:05;;;;;;;;;;;;;;;1.62;100.00;99949.56;4941674;28;19923;-82
2022/12/22 06:50:30;;;;;;;;;;;;;;;1.67;100.00;99941.53;4936707;28;19923;-77
2022/12/22 06:52:56;;;;;;;;;;;;;;;1.76;100.00;99938.47;4943767;28;20389;-79
2022/12/22 06:55:21;;;;;;;;;;;;;;;1.80;100.00;99926.97;4941509;28;19922;-78
2022/12/22 06:57:47;;;;;;;;;;;;;;;1.82;100.00;99940.75;4946279;28;19925;-77
2022/12/22 07:00:12;;;;;;;;;;;;;;;1.84;100.00;99944.09;4944433;29;19919;-78
2022/12/22 07:02:38;;;;;;;;;;;;;;;1.88;100.00;99950.84;4960352;28;19919;-78
2022/12/22 07:05:03;;;;;;;;;;;;;;;1.90;100.00;99959.41;4946569;28;19922;-76
2022/12/22 07:07:29;;;;;;;;;;;;;;;1.95;100.00;99967.81;4943330;28;19924;-77
2022/12/22 07:09:55;;;;;;;;;;;;;;;1.98;100.00;99962.47;4943452;28;20477;-76
2022/12/22 07:12:21;;;;;;;;;;;;;;;2.00;100.00;99971.00;4946417;28;20348;-77
2022/12/22 07:14:46;;;;;;;;;;;;;;;1.97;100.00;99971.19;4942725;28;19919;-76
2022/12/22 07:17:12;;;;;;;;;;;;;;;1.96;100.00;99971.25;4941703;29;20008;-78
2022/12/22 07:19:37;;;;;;;;;;;;;;;1.92;100.00;99977.56;4938032;28;20385;-78
2022/12/22 07:22:03;;;;;;;;;;;;;;;1.94;100.00;99986.97;4940291;28;19918;-77
2022/12/22 07:24:28;;;;;;;;;;;;;;;1.97;100.00;99984.19;4937803;28;21145;-77
2022/12/22 07:26:54;;;;;;;;;;;;;;;2.01;100.00;99977.06;4941441;28;19922;-75
2022/12/22 07:29:19;;;;;;;;;;;;;;;2.04;100.00;99985.56;4940143;29;19919;-77
2022/12/22 07:31:45;;;;;;;;;;;;;;;2.05;100.00;99995.06;4940404;28;19918;-78
2022/12/22 07:34:10;;;;;;;;;;;;;;;2.09;100.00;99994.91;4940089;28;19919;-77
2022/12/22 07:36:36;;;;;;;;;;;;;;;2.10;100.00;99996.59;4939351;28;19918;-77
2022/12/22 07:39:01;;;;;;;;;;;;;;;2.14;100.00;99992.91;4943827;28;19922;-77
2022/12/22 07:44:11;;;;;;;;;;;;;;;2.09;100.00;99984.50;4946262;29;19924;-77
2022/12/22 07:46:37;;;;;;;;;;;;;;;2.11;100.00;100006.09;4941666;28;19982;-77
2022/12/22 07:51:48;;;;;;;;;;;;;;;2.04;100.00;100013.38;4947367;29;19918;-77
2022/12/22 07:54:14;;;;;;;;;;;;;;;2.06;100.00;100017.56;4941838;28;19921;-77
2022/12/22 07:56:40;;;;;;;;;;;;;;;2.08;100.00;100009.69;4945236;28;20267;-78
2022/12/22 07:59:06;;;;;;;;;;;;;;;2.07;100.00;100005.38;4944122;28;20337;-77
2022/12/22 08:01:32;;;;;;;;;;;;;;;2.09;100.00;100003.56;4948951;28;19937;-78
2022/12/22 08:03:57;;;;;;;;;;;;;;;2.09;100.00;100000.09;4942697;28;19915;-75
2022/12/22 08:06:23;;;;;;;;;;;;;;;2.11;100.00;99987.88;4945076;28;19973;-75
2022/12/22 08:08:48;;;;;;;;;;;;;;;2.14;100.00;99987.69;4944140;28;19930;-77
2022/12/22 08:11:14;;;;;;;;;;;;;;;2.12;100.00;99979.13;4943193;28;19949;-77
2022/12/22 08:13:40;;;;;;;;;;;;;;;2.14;100.00;99982.50;4944032;28;19930;-76
2022/12/22 08:16:07;;;;;;;;;;;;;;;2.16;100.00;99981.50;4946267;28;19965;-78
2022/12/22 08:18:33;;;;;;;;;;;;;;;2.19;100.00;99980.47;4944511;28;20382;-79
2022/12/22 08:20:59;;;;;;;;;;;;;;;2.22;100.00;99980.34;4946643;28;19918;-77
2022/12/22 08:23:25;;;;;;;;;;;;;;;2.24;100.00;99978.50;4941748;28;19926;-76
2022/12/22 08:25:54;;;;;;;;;;;;;;;2.24;100.00;99978.50;4940422;28;19918;-77
2022/12/22 08:28:20;;;;;;;;;;;;;;;2.26;100.00;99974.03;4942888;28;19918;-77
2022/12/22 08:30:46;;;;;;;;;;;;;;;2.29;100.00;99976.50;4940685;28;19919;-78
2022/12/22 08:33:11;;;;;;;;;;;;;;;2.34;100.00;99987.50;4944157;28;19929;-78
2022/12/22 08:35:37;;;;;;;;;;;;;;;2.37;100.00;99979.53;4948290;28;19981;-77
2022/12/22 08:38:04;;;;;;;;;;;;;;;2.37;100.00;99989.94;4942060;29;19919;-77
2022/12/22 08:40:30;;;;;;;;;;;;;;;2.37;100.00;99980.38;4945383;28;19974;-77
2022/12/22 08:42:58;;;;;;;;;;;;;;;2.37;100.00;99974.31;4944909;28;20005;-77
2022/12/22 08:45:24;;;;;;;;;;;;;;;2.41;100.00;99960.22;4942498;28;19925;-78
2022/12/22 08:47:49;;;;;;;;;;;;;;;2.45;100.00;99972.16;4943577;28;20017;-78
2022/12/22 08:50:15;;;;;;;;;;;;;;;2.50;100.00;99975.34;4924690;28;19919;-77
2022/12/22 08:52:40;;;;;;;;;;;;;;;2.55;100.00;99972.50;4943291;28;19918;-77
2022/12/22 08:55:06;;;;;;;;;;;;;;;2.58;100.00;99982.75;4947859;28;19919;-77
2022/12/22 08:57:33;;;;;;;;;;;;;;;2.59;100.00;100006.13;4942891;29;19918;-77
2022/12/22 08:59:59;;;;;;;;;;;;;;;2.54;100.00;100018.53;4945289;28;19925;-77
2022/12/22 09:02:24;;;;;;;;;;;;;;;2.52;100.00;100004.78;4945558;28;19918;-76
2022/12/22 09:04:49;;;;;;;;;;;;;;;2.56;100.00;100011.50;4943670;28;19927;-77
2022/12/22 09:07:15;;;;;;;;;;;;;;;2.61;100.00;100006.88;4944458;28;20332;-78
2022/12/22 09:09:40;;;;;;;;;;;;;;;2.64;100.00;100004.13;4943605;28;19962;-77
2022/12/22 09:12:06;;;;;;;;;;;;;;;2.67;100.00;99987.47;4942437;29;19922;-79
2022/12/22 09:14:32;;;;;;;;;;;;;;;2.64;100.00;99983.28;4942353;28;19925;-76
2022/12/22 09:16:57;;;;;;;;;;;;;;;2.67;100.00;99980.50;4945482;28;20047;-77
2022/12/22 09:19:23;;;;;;;;;;;;;;;2.79;100.00;99971.16;4941351;28;19919;-76
2022/12/22 09:21:48;;;;;;;;;;;;;;;2.79;100.00;99971.16;4943427;29;20017;-78
2022/12/22 09:24:14;;;;;;;;;;;;;;;2.74;100.00;99963.59;4944858;28;19919;-78
2022/12/22 09:26:39;;;;;;;;;;;;;;;2.84;100.00;99959.56;4942785;28;20294;-78
2022/12/22 09:29:05;;;;;;;;;;;;;;;2.81;100.00;99949.31;4944271;28;19918;-77
2022/12/22 09:31:31;;;;;;;;;;;;;;;2.85;100.00;99945.63;4942187;28;19919;-76
2022/12/22 09:33:57;;;;;;;;;;;;;;;2.93;100.00;99939.16;4945035;28;19922;-77
2022/12/22 09:36:23;;;;;;;;;;;;;;;2.97;100.00;99940.66;4945406;28;19957;-76
2022/12/22 09:38:49;;;;;;;;;;;;;;;3.08;100.00;99925.22;4942438;28;19914;-77
2022/12/22 09:41:33;;;;;;;;;;;;;;;3.21;100.00;99926.22;4943045;28;20363;-78
2022/12/22 09:44:17;;;;;;;;;;;;;;;3.24;100.00;99923.47;4943692;28;19922;-77
2022/12/22 09:46:43;;;;;;;;;;;;;;;3.24;100.00;99931.28;4937943;28;20039;-77
2022/12/22 09:49:12;;;;;;;;;;;;;;;3.25;100.00;99938.16;4944642;28;19918;-79
2022/12/22 09:51:42;;;;;;;;;;;;;;;3.27;100.00;99946.75;4940219;28;20267;-78
2022/12/22 09:54:09;;;;;;;;;;;;;;;3.29;100.00;99944.91;4944189;28;19919;-78
2022/12/22 09:56:35;;;;;;;;;;;;;;;3.29;100.00;99955.34;4945064;28;19970;-78
2022/12/22 09:59:00;;;;;;;;;;;;;;;3.36;100.00;99955.81;4945530;28;19926;-78
2022/12/22 10:01:32;;;;;;;;;;;;;;;3.37;100.00;99942.69;4945257;28;19961;-77
2022/12/22 10:04:23;;;;;;;;;;;;;;;3.46;100.00;99951.75;4942715;28;19923;-76
2022/12/22 10:07:06;;;;;;;;;;;;;;;3.54;100.00;99934.72;4954772;28;20009;-77
2022/12/22 10:09:32;;;;;;;;;;;;;;;3.60;100.00;99929.13;4945063;28;19918;-78
2022/12/22 10:12:05;;;;;;;;;;;;;;;3.59;100.00;99937.88;4943096;28;19982;-77
2022/12/22 10:14:36;;;;;;;;;;;;;;;3.51;100.00;99947.94;4948802;28;20321;-78
2022/12/22 10:17:21;;;;;;;;;;;;;;;3.49;100.00;99954.16;4941309;28;19918;-77
2022/12/22 10:19:48;;;;;;;;;;;;;;;3.50;100.00;99942.81;4940688;28;19919;-78
2022/12/22 10:22:19;;;;;;;;;;;;;;;3.48;100.00;99948.09;4946626;28;19922;-77
2022/12/22 10:24:45;;;;;;;;;;;;;;;3.47;100.00;99959.50;4943964;29;19919;-77
2022/12/22 10:27:10;;;;;;;;;;;;;;;3.48;100.00;99961.16;4946150;29;19926;-78
2022/12/22 10:29:36;;;;;;;;;;;;;;;3.51;100.00;99961.00;4947377;28;19972;-79
2022/12/22 10:32:03;;;;;;;;;;;;;;;3.57;100.00;99963.25;4946537;28;19929;-77
2022/12/22 10:34:29;;;;;;;;;;;;;;;3.63;100.00;99973.34;4947211;28;20339;-79
2022/12/22 10:37:04;;;;;;;;;;;;;;;3.71;100.00;99981.53;4945919;28;19923;-78
2022/12/22 10:39:34;;;;;;;;;;;;;;;3.80;100.00;99967.13;4946270;28;20294;-78
2022/12/22 10:42:00;;;;;;;;;;;;;;;3.89;100.00;99965.75;4947759;28;19940;-78
2022/12/22 10:44:30;;;;;;;;;;;;;;;3.95;100.00;99965.38;4943641;29;20310;-78
2022/12/22 10:46:57;;;;;;;;;;;;;;;3.97;100.00;99971.34;4945788;28;19984;-79
2022/12/22 10:49:34;;;;;;;;;;;;;;;4.05;100.00;99961.28;4945057;28;20309;-78
2022/12/22 10:52:08;;;;;;;;;;;;;;;4.09;100.00;99968.84;4945741;28;19918;-78
2022/12/22 10:54:37;;;;;;;;;;;;;;;4.16;100.00;99960.66;4939936;28;20317;-78
2022/12/22 10:57:15;;;;;;;;;;;;;;;4.21;100.00;99951.59;4941233;28;20325;-77
2022/12/22 10:59:54;;;;;;;;;;;;;;;4.28;100.00;99932.00;4939092;28;20374;-78
2022/12/22 11:02:19;;;;;;;;;;;;;;;4.32;100.00;99917.81;4943815;28;19962;-78
2022/12/22 11:04:45;;;;;;;;;;;;;;;4.38;100.00;99909.59;4937843;28;20003;-77
2022/12/22 11:07:10;;;;;;;;;;;;;;;4.44;100.00;99917.06;4942061;29;19980;-78
2022/12/22 11:09:36;;;;;;;;;;;;;;;4.48;100.00;99902.03;4944618;28;19926;-77
2022/12/22 11:12:14;;;;;;;;;;;;;;;4.53;100.00;99905.22;4936900;28;19930;-76
2022/12/22 11:14:54;;;;;;;;;;;;;;;4.58;100.00;99910.16;4944511;28;20324;-77
2022/12/22 11:17:43;;;;;;;;;;;;;;;4.60;100.00;99908.25;4944125;28;20026;-77
2022/12/22 11:20:27;;;;;;;;;;;;;;;4.64;100.00;99907.16;4939460;28;19925;-78
2022/12/22 11:23:22;;;;;;;;;;;;;;;4.62;100.00;99909.84;4938399;28;20310;-77
2022/12/22 11:26:02;;;;;;;;;;;;;;;4.62;100.00;99919.47;4973099;28;20409;-78
2022/12/22 11:28:43;;;;;;;;;;;;;;;4.62;100.00;99916.84;4941793;28;20240;-78
2022/12/22 11:31:08;;;;;;;;;;;;;;;4.58;100.00;99897.06;4942515;28;19925;-76
2022/12/22 11:33:34;;;;;;;;;;;;;;;4.57;100.00;99898.84;4939312;29;19915;-77
2022/12/22 11:36:14;;;;;;;;;;;;;;;4.54;100.00;99897.25;4942902;28;20020;-78
2022/12/22 11:38:48;;;;;;;;;;;;;;;4.58;100.00;99902.31;4940366;28;20309;-77
2022/12/22 11:41:16;;;;;;;;;;;;;;;4.54;100.00;99906.88;4940254;28;19970;-77
2022/12/22 11:43:52;;;;;;;;;;;;;;;4.54;100.00;99902.47;4939568;28;20306;-77
2022/12/22 11:46:25;;;;;;;;;;;;;;;4.59;100.00;99896.16;4939920;29;20341;-78
2022/12/22 11:48:53;;;;;;;;;;;;;;;4.69;100.00;99874.53;4941832;28;19922;-76
2022/12/22 11:51:22;;;;;;;;;;;;;;;4.69;100.00;99869.31;4940390;28;20350;-77
2022/12/22 11:53:50;;;;;;;;;;;;;;;4.72;100.00;99869.09;4941614;29;19915;-77
2022/12/22 11:56:21;;;;;;;;;;;;;;;4.72;100.00;99868.25;4945740;28;20021;-78
2022/12/22 11:58:47;;;;;;;;;;;;;;;4.68;100.00;99861.56;4943540;28;19997;-78
2022/12/22 12:01:21;;;;;;;;;;;;;;;4.69;100.00;99858.88;4942093;28;19977;-78
2022/12/22 12:04:05;;;;;;;;;;;;;;;4.75;100.00;99863.69;4942390;28;19925;-78
2022/12/22 12:06:34;;;;;;;;;;;;;;;4.76;100.00;99869.78;4949293;28;20275;-77
2022/12/22 12:09:18;;;;;;;;;;;;;;;4.83;100.00;99855.38;4947842;28;20286;-78
2022/12/22 12:11:57;;;;;;;;;;;;;;;4.88;100.00;99842.84;4944508;28;19919;-78
2022/12/22 12:14:44;;;;;;;;;;;;;;;4.94;100.00;99847.66;4950956;28;20018;-77
2022/12/22 12:17:18;;;;;;;;;;;;;;;4.98;100.00;99830.81;4941574;28;20268;-78
2022/12/22 12:20:01;;;;;;;;;;;;;;;5.02;100.00;99821.81;4940202;28;19919;-78
2022/12/22 12:22:27;;;;;;;;;;;;;;;5.08;100.00;99823.19;4948897;28;20020;-78
2022/12/22 12:25:00;;;;;;;;;;;;;;;5.10;100.00;99826.56;4945684;28;19926;-78
2022/12/22 12:27:29;;;;;;;;;;;;;;;5.16;100.00;99807.84;4950588;28;19918;-77
2022/12/22 12:29:54;;;;;;;;;;;;;;;5.23;100.00;99807.34;4949226;28;19984;-78
2022/12/22 12:32:26;;;;;;;;;;;;;;;5.28;100.00;99807.88;4946006;28;19919;-78
2022/12/22 12:34:56;;;;;;;;;;;;;;;5.31;100.00;99820.72;4945856;28;20315;-77
2022/12/22 12:37:28;;;;;;;;;;;;;;;5.35;100.00;99806.50;4945456;28;19980;-79
2022/12/22 12:40:23;;;;;;;;;;;;;;;5.41;100.00;99817.50;4946286;29;19926;-78
2022/12/22 12:42:49;;;;;;;;;;;;;;;5.42;100.00;99812.13;4958700;28;20009;-78
2022/12/22 12:45:34;;;;;;;;;;;;;;;5.43;100.00;99808.59;4943001;28;19941;-79
2022/12/22 12:48:18;;;;;;;;;;;;;;;5.45;100.00;99792.78;4942900;28;19919;-78
2022/12/22 12:50:43;;;;;;;;;;;;;;;5.49;100.00;99775.94;4941718;28;20005;-79
2022/12/22 12:53:09;;;;;;;;;;;;;;;5.53;100.00;99777.41;4940949;28;20353;-79
2022/12/22 12:55:37;;;;;;;;;;;;;;;5.55;100.00;99783.34;4944845;28;19918;-78
2022/12/22 12:58:04;;;;;;;;;;;;;;;5.58;100.00;99785.78;4936139;28;20366;-77
2022/12/22 13:00:33;;;;;;;;;;;;;;;5.59;100.00;99792.69;4944695;28;19923;-78
2022/12/22 13:02:59;;;;;;;;;;;;;;;5.60;100.00;99789.09;4945176;28;20037;-79
2022/12/22 13:05:44;;;;;;;;;;;;;;;5.62;100.00;99787.22;4959326;28;19919;-78
2022/12/22 13:08:15;;;;;;;;;;;;;;;5.61;100.00;99781.16;4944692;29;20029;-78
2022/12/22 13:10:44;;;;;;;;;;;;;;;5.58;100.00;99780.53;4947237;28;20139;-78
2022/12/22 13:13:32;;;;;;;;;;;;;;;5.58;100.00;99784.00;4942985;28;19925;-78
2022/12/22 13:16:02;;;;;;;;;;;;;;;5.61;100.00;99785.56;4927439;28;19922;-78
2022/12/22 13:18:28;;;;;;;;;;;;;;;5.62;100.00;99789.84;4941841;28;19930;-78
2022/12/22 13:21:06;;;;;;;;;;;;;;;5.59;100.00;99792.69;4944008;29;19926;-77
2022/12/22 13:23:35;;;;;;;;;;;;;;;5.56;100.00;99783.25;4940007;28;19923;-79
2022/12/22 13:26:12;;;;;;;;;;;;;;;5.57;100.00;99786.72;4941457;28;19929;-78
2022/12/22 13:28:39;;;;;;;;;;;;;;;5.59;100.00;99787.47;4940293;28;20283;-78
2022/12/22 13:31:13;;;;;;;;;;;;;;;5.57;100.00;99784.09;4944278;28;20250;-78
2022/12/22 13:33:40;;;;;;;;;;;;;;;5.55;100.00;99791.22;4938343;28;19922;-77
2022/12/22 13:36:13;;;;;;;;;;;;;;;5.47;100.00;99793.53;4948887;28;20275;-78
2022/12/22 13:38:39;;;;;;;;;;;;;;;5.43;100.00;99781.56;4939862;28;19942;-78
2022/12/22 13:41:20;;;;;;;;;;;;;;;5.44;100.00;99788.50;4944576;28;19966;-79
2022/12/22 13:43:49;;;;;;;;;;;;;;;5.45;100.00;99784.94;4942081;28;19941;-79
2022/12/22 13:46:15;;;;;;;;;;;;;;;5.45;100.00;99779.69;4942708;28;20429;-78
2022/12/22 13:48:42;;;;;;;;;;;;;;;5.47;100.00;99783.06;4944637;28;19922;-78
2022/12/22 13:51:14;;;;;;;;;;;;;;;5.48;100.00;99766.44;4937949;28;19918;-78
2022/12/22 13:53:41;;;;;;;;;;;;;;;5.49;100.00;99781.16;4943015;28;19922;-79
2022/12/22 13:56:14;;;;;;;;;;;;;;;5.39;100.00;99773.13;4942411;28;20009;-78
2022/12/22 13:58:43;;;;;;;;;;;;;;;5.34;100.00;99768.19;4938149;28;19919;-78
2022/12/22 14:01:09;;;;;;;;;;;;;;;5.41;100.00;99770.41;4941877;28;19922;-78
2022/12/22 14:04:00;;;;;;;;;;;;;;;5.43;100.00;99782.41;4943206;28;19926;-78
2022/12/22 14:06:25;;;;;;;;;;;;;;;5.43;100.00;99785.03;4945216;28;19919;-79
2022/12/22 14:08:51;;;;;;;;;;;;;;;5.45;100.00;99780.53;4941834;28;19930;-78
2022/12/22 14:11:16;;;;;;;;;;;;;;;5.50;100.00;99782.84;4938868;28;20378;-78
2022/12/22 14:13:42;;;;;;;;;;;;;;;5.54;100.00;99779.91;4940544;28;20355;-78
2022/12/22 14:16:11;;;;;;;;;;;;;;;5.54;100.00;99774.66;4945693;28;20016;-77
2022/12/22 14:18:37;;;;;;;;;;;;;;;5.55;100.00;99771.09;4939614;28;19914;-78
2022/12/22 14:21:02;;;;;;;;;;;;;;;5.56;100.00;99766.72;4926265;28;20017;-77
2022/12/22 14:23:31;;;;;;;;;;;;;;;5.56;100.00;99766.72;4942562;28;19988;-77
2022/12/22 14:25:57;;;;;;;;;;;;;;;5.54;100.00;99765.97;4939158;28;19926;-77
2022/12/22 14:28:26;;;;;;;;;;;;;;;5.50;100.00;99767.97;4940797;28;19919;-78
2022/12/22 14:30:57;;;;;;;;;;;;;;;5.51;100.00;99761.81;4942625;28;19923;-78
2022/12/22 14:33:22;;;;;;;;;;;;;;;5.47;100.00;99769.97;4940229;28;19923;-77
2022/12/22 14:35:48;;;;;;;;;;;;;;;5.48;100.00;99753.34;4941420;28;19919;-77
2022/12/22 14:38:22;;;;;;;;;;;;;;;5.49;100.00;99745.34;4940279;28;19925;-77
2022/12/22 14:40:47;;;;;;;;;;;;;;;5.50;100.00;99752.28;4946374;28;19965;-78
2022/12/22 14:43:22;;;;;;;;;;;;;;;5.49;100.00;99760.22;4945447;28;19918;-77
2022/12/22 14:45:51;;;;;;;;;;;;;;;5.52;100.00;99754.78;4941067;28;20449;-78
2022/12/22 14:48:28;;;;;;;;;;;;;;;5.56;100.00;99756.25;4943082;28;20386;-78
2022/12/22 14:50:54;;;;;;;;;;;;;;;5.58;100.00;99763.06;4936610;29;19922;-77
2022/12/22 14:53:35;;;;;;;;;;;;;;;5.60;100.00;99765.53;4940888;28;20360;-77
2022/12/22 14:56:00;;;;;;;;;;;;;;;5.63;100.00;99762.72;4941870;29;19922;-77
2022/12/22 14:58:33;;;;;;;;;;;;;;;5.63;100.00;99757.50;4938876;28;20008;-77
2022/12/22 15:01:14;;;;;;;;;;;;;;;5.62;100.00;99750.59;5006610;28;20242;-78
2022/12/22 15:03:40;;;;;;;;;;;;;;;5.63;100.00;99747.03;4935308;28;19919;-77
2022/12/22 15:06:20;;;;;;;;;;;;;;;5.65;100.00;99739.91;4939227;28;19925;-78
2022/12/22 15:08:45;;;;;;;;;;;;;;;5.65;100.00;99739.91;4936541;29;19923;-78
2022/12/22 15:11:14;;;;;;;;;;;;;;;5.66;100.00;99741.56;4937456;28;19926;-78
2022/12/22 15:13:39;;;;;;;;;;;;;;;5.68;100.00;99731.84;4940501;28;19966;-78
2022/12/22 15:16:05;;;;;;;;;;;;;;;5.65;100.00;99738.13;4941711;28;20449;-77
2022/12/22 15:18:31;;;;;;;;;;;;;;;5.64;100.00;99738.22;4940161;28;20334;-78
2022/12/22 15:20:56;;;;;;;;;;;;;;;5.63;100.00;99747.03;4942380;28;20044;-77
2022/12/22 15:23:22;;;;;;;;;;;;;;;5.64;100.00;99748.72;4944583;28;19957;-77
2022/12/22 15:25:47;;;;;;;;;;;;;;;5.64;100.00;99740.84;4942605;28;19919;-78
2022/12/22 15:28:13;;;;;;;;;;;;;;;5.63;100.00;99737.41;4940002;28;19922;-77
2022/12/22 15:30:39;;;;;;;;;;;;;;;5.64;100.00;99743.47;4938616;28;20371;-77
2022/12/22 15:33:10;;;;;;;;;;;;;;;5.66;100.00;99741.56;4939745;28;20093;-78
2022/12/22 15:35:35;;;;;;;;;;;;;;;5.67;100.00;99738.00;4939250;28;20006;-78
2022/12/22 15:38:01;;;;;;;;;;;;;;;5.67;100.00;99753.72;4938333;28;20349;-77
2022/12/22 15:40:27;;;;;;;;;;;;;;;5.67;100.00;99743.25;4943292;28;19972;-78
2022/12/22 15:42:52;;;;;;;;;;;;;;;5.67;100.00;99743.25;4944798;28;19922;-75
2022/12/22 15:45:18;;;;;;;;;;;;;;;5.67;100.00;99738.00;4942938;28;19989;-78
2022/12/22 15:47:47;;;;;;;;;;;;;;;5.67;100.00;99727.53;4941022;28;20434;-77
2022/12/22 15:50:14;;;;;;;;;;;;;;;5.62;100.00;99729.63;4944777;28;19923;-78
2022/12/22 15:52:47;;;;;;;;;;;;;;;5.60;100.00;99748.06;4991968;28;19919;-77
2022/12/22 15:55:14;;;;;;;;;;;;;;;5.55;100.00;99759.81;4946555;28;19918;-77
2022/12/22 15:57:40;;;;;;;;;;;;;;;5.53;100.00;99759.09;4924653;29;19918;-78
2022/12/22 16:00:06;;;;;;;;;;;;;;;5.50;100.00;99751.44;4944762;28;20709;-77
2022/12/22 16:02:31;;;;;;;;;;;;;;;5.44;100.00;99747.47;4942254;28;19926;-77
2022/12/22 16:04:57;;;;;;;;;;;;;;;5.43;100.00;99744.94;4941649;29;20398;-77
2022/12/22 16:07:22;;;;;;;;;;;;;;;5.39;100.00;99753.94;4940902;28;20020;-77
2022/12/22 16:09:47;;;;;;;;;;;;;;;5.39;100.00;99759.19;4943712;28;20073;-77
2022/12/22 16:12:15;;;;;;;;;;;;;;;5.33;100.00;99766.53;4940989;28;19919;-77
2022/12/22 16:14:42;;;;;;;;;;;;;;;5.29;100.00;99766.84;4943606;28;19926;-77
2022/12/22 16:17:15;;;;;;;;;;;;;;;5.26;100.00;99760.03;4944349;28;19919;-75
2022/12/22 16:19:40;;;;;;;;;;;;;;;5.24;100.00;99755.84;4940143;28;19918;-77
2022/12/22 16:22:06;;;;;;;;;;;;;;;5.23;100.00;99755.00;4926549;28;19941;-77
2022/12/22 16:24:34;;;;;;;;;;;;;;;5.22;100.00;99755.94;4933339;28;19926;-77
2022/12/22 16:27:01;;;;;;;;;;;;;;;5.22;100.00;99753.34;4944306;28;19922;-78
2022/12/22 16:29:26;;;;;;;;;;;;;;;5.24;100.00;99754.03;4944884;28;19918;-79
2022/12/22 16:31:52;;;;;;;;;;;;;;;5.22;100.00;99753.34;4943115;28;19992;-78